sensor_id;sensor_type;location;lat;lon;timestamp;pressure;altitude;pressure_sealevel;temperature;humidity
21863;BME280;11096;51.338;12.524;2023-08-06T00:00:45;99301.19;;;18.81;74.46
21863;BME280;11096;51.338;12.524;2023-08-06T00:03:10;99307.22;;;18.66;74.87
21863;BME280;11096;51.338;12.524;2023-08-06T00:05:36;99294.25;;;20.27;70.13
21863;BME280;11096;51.338;12.524;2023-08-06T00:08:01;99279.41;;;20.69;67.50
21863;BME280;11096;51.338;12.524;2023-08-06T00:10:27;99283.06;;;20.74;66.44
21863;BME280;11096;51.338;12.524;2023-08-06T00:12:53;99272.50;;;20.74;66.19
21863;BME280;11096;51.338;12.524;2023-08-06T00:15:18;99263.84;;;20.80;66.08
21863;BME280;11096;51.338;12.524;2023-08-06T00:17:44;99267.47;;;20.79;65.97
21863;BME280;11096;51.338;12.524;2023-08-06T00:20:09;99262.88;;;20.88;65.60
21863;BME280;11096;51.338;12.524;2023-08-06T00:22:36;99262.47;;;20.91;65.57
21863;BME280;11096;51.338;12.524;2023-08-06T00:25:03;99256.78;;;20.94;65.18
21863;BME280;11096;51.338;12.524;2023-08-06T00:27:28;99262.28;;;20.93;64.90
21863;BME280;11096;51.338;12.524;2023-08-06T00:29:54;99260.03;;;20.90;64.83
21863;BME280;11096;51.338;12.524;2023-08-06T00:32:21;99255.97;;;20.87;64.75
21863;BME280;11096;51.338;12.524;2023-08-06T00:34:46;99267.97;;;20.90;64.53
21863;BME280;11096;51.338;12.524;2023-08-06T00:37:14;99259.19;;;20.83;64.71
21863;BME280;11096;51.338;12.524;2023-08-06T00:39:40;99257.53;;;20.82;64.83
21863;BME280;11096;51.338;12.524;2023-08-06T00:42:05;99263.84;;;20.80;65.00
21863;BME280;11096;51.338;12.524;2023-08-06T00:44:30;99267.88;;;20.76;65.01
21863;BME280;11096;51.338;12.524;2023-08-06T00:46:56;99265.59;;;19.15;69.19
21863;BME280;11096;51.338;12.524;2023-08-06T00:49:21;99267.78;;;18.81;72.02
21863;BME280;11096;51.338;12.524;2023-08-06T00:51:47;99263.13;;;18.69;73.89
21863;BME280;11096;51.338;12.524;2023-08-06T00:54:13;99255.06;;;19.15;74.19
21863;BME280;11096;51.338;12.524;2023-08-06T00:56:39;99256.38;;;18.51;74.53
21863;BME280;11096;51.338;12.524;2023-08-06T00:59:06;99258.66;;;18.16;76.34
21863;BME280;11096;51.338;12.524;2023-08-06T01:01:32;99252.41;;;18.32;75.95
21863;BME280;11096;51.338;12.524;2023-08-06T01:03:57;99257.97;;;18.37;76.35
21863;BME280;11096;51.338;12.524;2023-08-06T01:14:54;99247.75;;;18.57;75.24
21863;BME280;11096;51.338;12.524;2023-08-06T01:17:23;99246.94;;;18.57;75.18
21863;BME280;11096;51.338;12.524;2023-08-06T01:19:49;99237.38;;;18.41;75.70
21863;BME280;11096;51.338;12.524;2023-08-06T01:22:14;99233.31;;;18.53;74.80
21863;BME280;11096;51.338;12.524;2023-08-06T01:24:43;99231.84;;;18.51;75.29
21863;BME280;11096;51.338;12.524;2023-08-06T01:27:16;99231.16;;;18.57;75.87
21863;BME280;11096;51.338;12.524;2023-08-06T01:29:49;99235.59;;;18.56;76.29
21863;BME280;11096;51.338;12.524;2023-08-06T01:32:18;99231.97;;;18.57;75.94
21863;BME280;11096;51.338;12.524;2023-08-06T01:34:47;99234.69;;;18.64;76.05
21863;BME280;11096;51.338;12.524;2023-08-06T01:37:14;99235.59;;;18.56;76.00
21863;BME280;11096;51.338;12.524;2023-08-06T01:39:42;99232.69;;;18.51;76.07
21863;BME280;11096;51.338;12.524;2023-08-06T01:42:08;99223.63;;;18.54;76.34
21863;BME280;11096;51.338;12.524;2023-08-06T01:44:33;99230.78;;;18.60;75.68
21863;BME280;11096;51.338;12.524;2023-08-06T01:46:59;99223.34;;;18.49;75.93
21863;BME280;11096;51.338;12.524;2023-08-06T01:49:24;99223.06;;;18.43;76.18
21863;BME280;11096;51.338;12.524;2023-08-06T01:51:49;99223.25;;;18.42;76.35
21863;BME280;11096;51.338;12.524;2023-08-06T01:54:15;99221.03;;;18.31;76.56
21863;BME280;11096;51.338;12.524;2023-08-06T01:56:40;99220.69;;;18.34;77.20
21863;BME280;11096;51.338;12.524;2023-08-06T01:59:06;99217.50;;;18.38;77.43
21863;BME280;11096;51.338;12.524;2023-08-06T02:01:31;99210.88;;;18.95;74.46
21863;BME280;11096;51.338;12.524;2023-08-06T02:03:56;99197.50;;;20.34;70.98
21863;BME280;11096;51.338;12.524;2023-08-06T02:06:22;99209.59;;;18.76;73.48
21863;BME280;11096;51.338;12.524;2023-08-06T02:08:47;99209.28;;;18.56;75.28
21863;BME280;11096;51.338;12.524;2023-08-06T02:11:13;99206.56;;;18.64;74.66
21863;BME280;11096;51.338;12.524;2023-08-06T02:13:38;99195.41;;;18.62;74.94
21863;BME280;11096;51.338;12.524;2023-08-06T02:16:07;99202.84;;;18.59;75.71
21863;BME280;11096;51.338;12.524;2023-08-06T02:18:32;99198.94;;;18.55;76.05
21863;BME280;11096;51.338;12.524;2023-08-06T02:20:58;99185.72;;;18.78;74.15
21863;BME280;11096;51.338;12.524;2023-08-06T02:23:26;99185.78;;;18.55;75.58
21863;BME280;11096;51.338;12.524;2023-08-06T02:26:01;99180.78;;;19.04;71.48
21863;BME280;11096;51.338;12.524;2023-08-06T02:28:28;99170.63;;;18.57;75.11
21863;BME280;11096;51.338;12.524;2023-08-06T02:30:53;99170.25;;;18.45;76.26
21863;BME280;11096;51.338;12.524;2023-08-06T02:33:19;99160.91;;;18.42;76.66
21863;BME280;11096;51.338;12.524;2023-08-06T02:35:44;99160.75;;;18.44;77.33
21863;BME280;11096;51.338;12.524;2023-08-06T02:38:10;99161.28;;;18.39;77.66
21863;BME280;11096;51.338;12.524;2023-08-06T02:40:35;99158.44;;;18.41;78.20
21863;BME280;11096;51.338;12.524;2023-08-06T02:43:01;99163.00;;;18.47;77.87
21863;BME280;11096;51.338;12.524;2023-08-06T02:45:26;99160.75;;;18.44;78.25
21863;BME280;11096;51.338;12.524;2023-08-06T02:47:51;99150.88;;;18.46;78.46
21863;BME280;11096;51.338;12.524;2023-08-06T02:50:17;99144.34;;;19.23;73.86
21863;BME280;11096;51.338;12.524;2023-08-06T02:52:42;99147.06;;;18.63;76.63
21863;BME280;11096;51.338;12.524;2023-08-06T02:55:07;99141.22;;;18.53;77.22
21863;BME280;11096;51.338;12.524;2023-08-06T02:57:33;99133.53;;;18.52;77.42
21863;BME280;11096;51.338;12.524;2023-08-06T02:59:58;99134.59;;;18.42;77.80
21863;BME280;11096;51.338;12.524;2023-08-06T03:02:24;99133.53;;;18.52;78.26
21863;BME280;11096;51.338;12.524;2023-08-06T03:04:49;99136.25;;;18.58;77.83
21863;BME280;11096;51.338;12.524;2023-08-06T03:07:14;99131.28;;;18.49;77.74
21863;BME280;11096;51.338;12.524;2023-08-06T03:09:40;99125.81;;;18.50;77.79
21863;BME280;11096;51.338;12.524;2023-08-06T03:12:05;99126.53;;;18.44;77.86
21863;BME280;11096;51.338;12.524;2023-08-06T03:14:31;99132.25;;;18.48;78.08
21863;BME280;11096;51.338;12.524;2023-08-06T03:16:56;99126.53;;;18.44;78.07
21863;BME280;11096;51.338;12.524;2023-08-06T03:19:22;99117.22;;;18.41;78.17
21863;BME280;11096;51.338;12.524;2023-08-06T03:21:47;99115.28;;;18.50;78.06
21863;BME280;11096;51.338;12.524;2023-08-06T03:24:13;99118.28;;;18.47;77.97
21863;BME280;11096;51.338;12.524;2023-08-06T03:26:39;99120.75;;;18.34;77.66
21863;BME280;11096;51.338;12.524;2023-08-06T03:29:04;99119.34;;;18.23;78.21
21863;BME280;11096;51.338;12.524;2023-08-06T03:31:30;99113.81;;;18.92;73.36
21863;BME280;11096;51.338;12.524;2023-08-06T03:33:55;99116.16;;;19.60;74.71
21863;BME280;11096;51.338;12.524;2023-08-06T03:36:20;99112.94;;;18.40;76.14
21863;BME280;11096;51.338;12.524;2023-08-06T03:38:46;99110.56;;;18.31;77.82
21863;BME280;11096;51.338;12.524;2023-08-06T03:41:11;99111.03;;;18.34;78.62
21863;BME280;11096;51.338;12.524;2023-08-06T03:43:37;99113.13;;;18.39;77.87
21863;BME280;11096;51.338;12.524;2023-08-06T03:46:02;99106.47;;;18.43;77.43
21863;BME280;11096;51.338;12.524;2023-08-06T03:48:27;99105.03;;;18.55;77.03
21863;BME280;11096;51.338;12.524;2023-08-06T03:50:53;99104.16;;;19.36;78.04
21863;BME280;11096;51.338;12.524;2023-08-06T03:53:18;99108.34;;;19.08;76.63
21863;BME280;11096;51.338;12.524;2023-08-06T03:55:43;99100.88;;;18.46;77.23
21863;BME280;11096;51.338;12.524;2023-08-06T03:58:09;99095.41;;;18.48;77.11
21863;BME280;11096;51.338;12.524;2023-08-06T04:00:34;99097.78;;;18.42;78.04
21863;BME280;11096;51.338;12.524;2023-08-06T04:03:00;99104.31;;;18.32;78.17
21863;BME280;11096;51.338;12.524;2023-08-06T04:05:25;99098.31;;;18.53;75.96
21863;BME280;11096;51.338;12.524;2023-08-06T04:07:50;99098.44;;;18.30;78.14
21863;BME280;11096;51.338;12.524;2023-08-06T04:10:16;99100.69;;;18.48;78.46
21863;BME280;11096;51.338;12.524;2023-08-06T04:12:41;99088.50;;;20.68;72.50
21863;BME280;11096;51.338;12.524;2023-08-06T04:15:07;99072.00;;;21.14;67.52
21863;BME280;11096;51.338;12.524;2023-08-06T04:17:32;99086.97;;;18.52;74.30
21863;BME280;11096;51.338;12.524;2023-08-06T04:19:58;99089.88;;;18.57;74.53
21863;BME280;11096;51.338;12.524;2023-08-06T04:22:24;99088.72;;;18.45;76.85
21863;BME280;11096;51.338;12.524;2023-08-06T04:24:50;99088.06;;;18.43;78.17
21863;BME280;11096;51.338;12.524;2023-08-06T04:27:16;99076.22;;;20.54;72.47
21863;BME280;11096;51.338;12.524;2023-08-06T04:29:42;99079.00;;;19.33;73.99
21863;BME280;11096;51.338;12.524;2023-08-06T04:32:08;99081.88;;;19.17;75.83
21863;BME280;11096;51.338;12.524;2023-08-06T04:34:35;99076.22;;;20.54;71.58
21863;BME280;11096;51.338;12.524;2023-08-06T04:37:02;99089.16;;;18.78;74.92
21863;BME280;11096;51.338;12.524;2023-08-06T04:39:28;99090.97;;;18.78;76.37
21863;BME280;11096;51.338;12.524;2023-08-06T04:41:53;99077.84;;;19.85;76.12
21863;BME280;11096;51.338;12.524;2023-08-06T04:44:19;99081.97;;;18.72;75.21
21863;BME280;11096;51.338;12.524;2023-08-06T04:46:44;99088.81;;;18.37;78.02
21863;BME280;11096;51.338;12.524;2023-08-06T04:49:09;99081.84;;;18.29;79.61
21863;BME280;11096;51.338;12.524;2023-08-06T04:51:35;99081.91;;;18.36;79.34
21863;BME280;11096;51.338;12.524;2023-08-06T04:54:00;99087.09;;;18.14;80.41
21863;BME280;11096;51.338;12.524;2023-08-06T04:56:26;99084.72;;;18.19;81.43
21863;BME280;11096;51.338;12.524;2023-08-06T04:58:51;99087.38;;;18.19;81.37
21863;BME280;11096;51.338;12.524;2023-08-06T05:01:17;99087.38;;;18.19;80.75
21863;BME280;11096;51.338;12.524;2023-08-06T05:03:42;99085.28;;;18.15;81.36
21863;BME280;11096;51.338;12.524;2023-08-06T05:06:07;99082.53;;;18.08;81.50
21863;BME280;11096;51.338;12.524;2023-08-06T05:08:33;99075.94;;;18.12;82.11
21863;BME280;11096;51.338;12.524;2023-08-06T05:10:58;99077.09;;;18.10;81.81
21863;BME280;11096;51.338;12.524;2023-08-06T05:13:24;99079.78;;;18.91;75.11
21863;BME280;11096;51.338;12.524;2023-08-06T05:15:50;99059.63;;;19.90;77.88
21863;BME280;11096;51.338;12.524;2023-08-06T05:18:16;99068.03;;;18.42;79.10
21863;BME280;11096;51.338;12.524;2023-08-06T05:20:42;99070.84;;;18.40;79.63
21863;BME280;11096;51.338;12.524;2023-08-06T05:23:08;99062.78;;;18.42;79.73
21863;BME280;11096;51.338;12.524;2023-08-06T05:25:37;99068.47;;;18.60;78.74
21863;BME280;11096;51.338;12.524;2023-08-06T05:28:03;99067.22;;;18.56;79.07
21863;BME280;11096;51.338;12.524;2023-08-06T05:30:28;99064.75;;;18.55;78.68
21863;BME280;11096;51.338;12.524;2023-08-06T05:32:54;99071.94;;;18.76;76.90
21863;BME280;11096;51.338;12.524;2023-08-06T05:35:20;99071.81;;;18.69;77.02
21863;BME280;11096;51.338;12.524;2023-08-06T05:37:46;99060.91;;;18.72;75.62
21863;BME280;11096;51.338;12.524;2023-08-06T05:40:12;99059.38;;;18.78;75.78
21863;BME280;11096;51.338;12.524;2023-08-06T05:42:37;99062.34;;;18.75;75.78
21863;BME280;11096;51.338;12.524;2023-08-06T05:45:03;99051.22;;;19.52;75.35
21863;BME280;11096;51.338;12.524;2023-08-06T05:47:29;99048.69;;;19.44;71.23
21863;BME280;11096;51.338;12.524;2023-08-06T05:49:54;99054.56;;;18.81;74.74
21863;BME280;11096;51.338;12.524;2023-08-06T05:52:19;99063.75;;;18.71;74.86
21863;BME280;11096;51.338;12.524;2023-08-06T05:54:45;99060.31;;;18.55;75.65
21863;BME280;11096;51.338;12.524;2023-08-06T05:57:10;99056.75;;;18.63;75.95
21863;BME280;11096;51.338;12.524;2023-08-06T05:59:35;99063.03;;;18.77;75.59
21863;BME280;11096;51.338;12.524;2023-08-06T06:02:01;99058.47;;;18.71;75.15
21863;BME280;11096;51.338;12.524;2023-08-06T06:04:26;99058.22;;;18.80;74.75
21863;BME280;11096;51.338;12.524;2023-08-06T06:06:52;99047.94;;;19.50;71.76
21863;BME280;11096;51.338;12.524;2023-08-06T06:09:17;99060.31;;;19.06;72.87
21863;BME280;11096;51.338;12.524;2023-08-06T06:11:43;99059.16;;;18.94;74.13
21863;BME280;11096;51.338;12.524;2023-08-06T06:14:08;99052.28;;;19.36;70.74
21863;BME280;11096;51.338;12.524;2023-08-06T06:16:34;99051.16;;;19.24;72.55
21863;BME280;11096;51.338;12.524;2023-08-06T06:18:59;99053.72;;;19.17;72.50
21863;BME280;11096;51.338;12.524;2023-08-06T06:21:25;99041.34;;;19.39;72.38
21863;BME280;11096;51.338;12.524;2023-08-06T06:23:50;99041.25;;;19.47;71.23
21863;BME280;11096;51.338;12.524;2023-08-06T06:26:17;99041.00;;;19.42;72.16
21863;BME280;11096;51.338;12.524;2023-08-06T06:28:43;99045.41;;;19.35;72.13
21863;BME280;11096;51.338;12.524;2023-08-06T06:31:08;99037.81;;;19.47;72.11
21863;BME280;11096;51.338;12.524;2023-08-06T06:33:34;99036.59;;;19.49;71.39
21863;BME280;11096;51.338;12.524;2023-08-06T06:36:00;99031.13;;;19.51;70.82
21863;BME280;11096;51.338;12.524;2023-08-06T06:38:25;99035.78;;;20.47;71.17
21863;BME280;11096;51.338;12.524;2023-08-06T06:40:57;99037.72;;;19.62;70.80
21863;BME280;11096;51.338;12.524;2023-08-06T06:43:23;99035.44;;;19.59;71.26
21863;BME280;11096;51.338;12.524;2023-08-06T06:45:59;99034.44;;;19.60;71.00
21863;BME280;11096;51.338;12.524;2023-08-06T06:48:29;99035.69;;;19.64;70.81
21863;BME280;11096;51.338;12.524;2023-08-06T06:50:55;99024.47;;;19.77;70.36
21863;BME280;11096;51.338;12.524;2023-08-06T06:53:21;99023.88;;;19.81;69.93
21863;BME280;11096;51.338;12.524;2023-08-06T06:55:55;99026.78;;;19.86;69.69
21863;BME280;11096;51.338;12.524;2023-08-06T06:58:20;99025.22;;;19.99;69.29
21863;BME280;11096;51.338;12.524;2023-08-06T07:00:47;99028.84;;;19.98;69.34
21863;BME280;11096;51.338;12.524;2023-08-06T07:03:14;99018.81;;;22.87;62.99
21863;BME280;11096;51.338;12.524;2023-08-06T07:05:39;99025.19;;;20.82;63.51
21863;BME280;11096;51.338;12.524;2023-08-06T07:08:05;99023.28;;;20.14;66.92
21863;BME280;11096;51.338;12.524;2023-08-06T07:10:30;99023.81;;;20.03;68.20
21863;BME280;11096;51.338;12.524;2023-08-06T07:12:56;99027.25;;;20.03;69.60
21863;BME280;11096;51.338;12.524;2023-08-06T07:15:21;99025.78;;;20.70;68.40
21863;BME280;11096;51.338;12.524;2023-08-06T07:17:46;99020.78;;;21.02;66.83
21863;BME280;11096;51.338;12.524;2023-08-06T07:20:12;99024.19;;;20.34;67.18
21863;BME280;11096;51.338;12.524;2023-08-06T07:22:37;99027.25;;;20.38;67.57
21863;BME280;11096;51.338;12.524;2023-08-06T07:25:03;99023.94;;;20.29;67.39
21863;BME280;11096;51.338;12.524;2023-08-06T07:27:28;99028.59;;;20.27;66.92
21863;BME280;11096;51.338;12.524;2023-08-06T07:29:53;99030.25;;;20.35;66.70
21863;BME280;11096;51.338;12.524;2023-08-06T07:32:19;99023.22;;;20.49;66.98
21863;BME280;11096;51.338;12.524;2023-08-06T07:34:44;99029.13;;;20.51;67.32
21863;BME280;11096;51.338;12.524;2023-08-06T07:37:10;99024.25;;;20.54;66.96
21863;BME280;11096;51.338;12.524;2023-08-06T07:39:35;99032.16;;;20.54;66.09
21863;BME280;11096;51.338;12.524;2023-08-06T07:42:03;99025.84;;;21.23;63.22
21863;BME280;11096;51.338;12.524;2023-08-06T07:44:31;99037.31;;;20.63;65.61
21863;BME280;11096;51.338;12.524;2023-08-06T07:46:56;99035.66;;;20.55;66.02
21863;BME280;11096;51.338;12.524;2023-08-06T07:49:21;99033.72;;;20.84;65.33
21863;BME280;11096;51.338;12.524;2023-08-06T07:51:47;99041.88;;;20.95;66.18
21863;BME280;11096;51.338;12.524;2023-08-06T07:54:12;99032.97;;;21.10;65.31
21863;BME280;11096;51.338;12.524;2023-08-06T07:56:38;99032.59;;;21.19;64.27
21863;BME280;11096;51.338;12.524;2023-08-06T07:59:03;99036.66;;;21.22;64.48
21863;BME280;11096;51.338;12.524;2023-08-06T08:01:28;99036.06;;;21.40;62.93
21863;BME280;11096;51.338;12.524;2023-08-06T08:03:54;99035.25;;;21.46;62.68
21863;BME280;11096;51.338;12.524;2023-08-06T08:06:19;99036.25;;;21.32;63.21
21863;BME280;11096;51.338;12.524;2023-08-06T08:08:44;99031.81;;;21.39;62.85
21863;BME280;11096;51.338;12.524;2023-08-06T08:11:10;99026.50;;;21.32;63.09
21863;BME280;11096;51.338;12.524;2023-08-06T08:13:35;99024.91;;;21.51;62.38
21863;BME280;11096;51.338;12.524;2023-08-06T08:16:01;99024.47;;;21.41;62.35
21863;BME280;11096;51.338;12.524;2023-08-06T08:18:27;99016.72;;;21.19;62.17
21863;BME280;11096;51.338;12.524;2023-08-06T08:20:52;99017.72;;;21.38;62.62
21863;BME280;11096;51.338;12.524;2023-08-06T08:23:18;99018.59;;;21.52;60.91
21863;BME280;11096;51.338;12.524;2023-08-06T08:25:43;99020.78;;;21.22;61.86
21863;BME280;11096;51.338;12.524;2023-08-06T08:28:09;99010.81;;;21.31;62.17
21863;BME280;11096;51.338;12.524;2023-08-06T08:30:34;99007.78;;;21.07;62.70
21863;BME280;11096;51.338;12.524;2023-08-06T08:32:59;99013.25;;;21.06;62.81
21863;BME280;11096;51.338;12.524;2023-08-06T08:35:25;99007.78;;;21.27;61.90
21863;BME280;11096;51.338;12.524;2023-08-06T08:37:51;99001.06;;;21.11;62.21
21863;BME280;11096;51.338;12.524;2023-08-06T08:40:17;98997.81;;;21.22;62.49
21863;BME280;11096;51.338;12.524;2023-08-06T08:42:42;99004.75;;;21.63;62.01
21863;BME280;11096;51.338;12.524;2023-08-06T08:45:15;98997.19;;;21.87;61.37
21863;BME280;11096;51.338;12.524;2023-08-06T08:47:41;98997.75;;;22.02;59.62
21863;BME280;11096;51.338;12.524;2023-08-06T08:50:08;98988.81;;;21.97;59.97
21863;BME280;11096;51.338;12.524;2023-08-06T08:52:35;98981.25;;;22.14;59.83
21863;BME280;11096;51.338;12.524;2023-08-06T08:55:01;98980.34;;;22.40;59.17
21863;BME280;11096;51.338;12.524;2023-08-06T08:57:27;98977.38;;;22.61;56.98
21863;BME280;11096;51.338;12.524;2023-08-06T08:59:52;98972.19;;;22.80;55.95
21863;BME280;11096;51.338;12.524;2023-08-06T09:02:18;98974.31;;;22.96;56.80
21863;BME280;11096;51.338;12.524;2023-08-06T09:04:47;98973.69;;;23.01;55.83
21863;BME280;11096;51.338;12.524;2023-08-06T09:07:17;98966.66;;;23.13;55.74
21863;BME280;11096;51.338;12.524;2023-08-06T09:09:43;98964.13;;;23.50;54.45
21863;BME280;11096;51.338;12.524;2023-08-06T09:12:13;98954.78;;;23.66;53.81
21863;BME280;11096;51.338;12.524;2023-08-06T09:14:40;98957.94;;;23.56;53.38
21863;BME280;11096;51.338;12.524;2023-08-06T09:17:05;98963.88;;;23.76;53.83
21863;BME280;11096;51.338;12.524;2023-08-06T09:19:32;98946.47;;;24.17;51.89
21863;BME280;11096;51.338;12.524;2023-08-06T09:21:58;98951.97;;;24.53;51.34
21863;BME280;11096;51.338;12.524;2023-08-06T09:24:23;98949.16;;;24.29;51.95
21863;BME280;11096;51.338;12.524;2023-08-06T09:26:49;98953.19;;;24.69;51.24
21863;BME280;11096;51.338;12.524;2023-08-06T09:29:15;98951.69;;;25.50;50.25
21863;BME280;11096;51.338;12.524;2023-08-06T09:31:48;98942.34;;;25.47;49.34
21863;BME280;11096;51.338;12.524;2023-08-06T09:34:18;98938.75;;;25.18;49.88
21863;BME280;11096;51.338;12.524;2023-08-06T09:36:51;98944.59;;;24.36;50.15
21863;BME280;11096;51.338;12.524;2023-08-06T09:39:27;98947.25;;;24.55;50.92
21863;BME280;11096;51.338;12.524;2023-08-06T09:42:00;98948.09;;;25.21;49.60
21863;BME280;11096;51.338;12.524;2023-08-06T09:44:28;98938.34;;;25.15;49.24
21863;BME280;11096;51.338;12.524;2023-08-06T09:46:54;98938.31;;;26.09;48.13
21863;BME280;11096;51.338;12.524;2023-08-06T09:49:24;98928.69;;;27.28;45.64
21863;BME280;11096;51.338;12.524;2023-08-06T09:51:51;98931.41;;;27.33;45.28
21863;BME280;11096;51.338;12.524;2023-08-06T09:54:17;98926.31;;;28.36;43.31
21863;BME280;11096;51.338;12.524;2023-08-06T09:56:46;98922.56;;;27.88;42.95
21863;BME280;11096;51.338;12.524;2023-08-06T09:59:13;98927.22;;;27.59;43.62
21863;BME280;11096;51.338;12.524;2023-08-06T10:01:41;98927.38;;;27.30;44.33
21863;BME280;11096;51.338;12.524;2023-08-06T10:04:06;98923.31;;;26.31;45.86
21863;BME280;11096;51.338;12.524;2023-08-06T10:06:37;98921.25;;;26.22;46.85
21863;BME280;11096;51.338;12.524;2023-08-06T10:09:05;98921.34;;;26.55;45.75
21863;BME280;11096;51.338;12.524;2023-08-06T10:11:31;98915.56;;;25.78;46.94
21863;BME280;11096;51.338;12.524;2023-08-06T10:14:16;98914.47;;;25.38;47.56
21863;BME280;11096;51.338;12.524;2023-08-06T10:16:45;98908.09;;;25.27;47.98
21863;BME280;11096;51.338;12.524;2023-08-06T10:19:13;98911.22;;;25.36;48.93
21863;BME280;11096;51.338;12.524;2023-08-06T10:21:40;98904.06;;;26.01;48.11
21863;BME280;11096;51.338;12.524;2023-08-06T10:24:14;98904.22;;;25.82;47.48
21863;BME280;11096;51.338;12.524;2023-08-06T10:26:39;98907.66;;;25.31;49.78
21863;BME280;11096;51.338;12.524;2023-08-06T10:29:36;98890.50;;;25.15;48.94
21863;BME280;11096;51.338;12.524;2023-08-06T10:32:03;98884.97;;;25.04;48.96
21863;BME280;11096;51.338;12.524;2023-08-06T10:34:55;98888.25;;;25.82;48.00
21863;BME280;11096;51.338;12.524;2023-08-06T10:37:21;98885.25;;;25.90;45.98
21863;BME280;11096;51.338;12.524;2023-08-06T10:39:49;98876.78;;;27.35;43.74
21863;BME280;11096;51.338;12.524;2023-08-06T10:42:20;98868.63;;;27.08;43.71
21863;BME280;11096;51.338;12.524;2023-08-06T10:45:11;98853.66;;;28.39;42.39
21863;BME280;11096;51.338;12.524;2023-08-06T10:47:41;98863.09;;;28.47;41.45
21863;BME280;11096;51.338;12.524;2023-08-06T10:50:14;98853.19;;;27.93;41.79
21863;BME280;11096;51.338;12.524;2023-08-06T10:52:42;98855.38;;;27.52;43.94
21863;BME280;11096;51.338;12.524;2023-08-06T10:55:08;98838.13;;;28.04;42.23
21863;BME280;11096;51.338;12.524;2023-08-06T10:57:34;98838.81;;;27.72;42.90
21863;BME280;11096;51.338;12.524;2023-08-06T10:59:59;98833.34;;;27.40;43.15
21863;BME280;11096;51.338;12.524;2023-08-06T11:02:25;98827.81;;;27.69;41.44
21863;BME280;11096;51.338;12.524;2023-08-06T11:04:50;98825.97;;;27.91;40.66
21863;BME280;11096;51.338;12.524;2023-08-06T11:07:16;98819.16;;;28.65;39.98
21863;BME280;11096;51.338;12.524;2023-08-06T11:09:42;98821.25;;;29.00;39.96
21863;BME280;11096;51.338;12.524;2023-08-06T11:12:10;98824.59;;;28.75;40.11
21863;BME280;11096;51.338;12.524;2023-08-06T11:14:36;98821.88;;;28.70;40.53
21863;BME280;11096;51.338;12.524;2023-08-06T11:17:01;98822.72;;;28.76;40.07
21863;BME280;11096;51.338;12.524;2023-08-06T11:19:27;98814.81;;;29.44;39.24
21863;BME280;11096;51.338;12.524;2023-08-06T11:21:52;98816.47;;;29.02;38.95
21863;BME280;11096;51.338;12.524;2023-08-06T11:24:18;98814.72;;;30.02;38.31
21863;BME280;11096;51.338;12.524;2023-08-06T11:26:43;98805.31;;;29.79;37.67
21863;BME280;11096;51.338;12.524;2023-08-06T11:29:10;98789.50;;;31.70;34.85
21863;BME280;11096;51.338;12.524;2023-08-06T11:31:36;98789.44;;;31.26;34.91
21863;BME280;11096;51.338;12.524;2023-08-06T11:34:01;98794.81;;;31.20;34.43
21863;BME280;11096;51.338;12.524;2023-08-06T11:36:34;98784.50;;;30.57;35.37
21863;BME280;11096;51.338;12.524;2023-08-06T11:39:02;98780.69;;;30.79;35.36
21863;BME280;11096;51.338;12.524;2023-08-06T11:41:30;98776.44;;;30.83;35.11
21863;BME280;11096;51.338;12.524;2023-08-06T11:43:56;98795.97;;;29.86;36.76
21863;BME280;11096;51.338;12.524;2023-08-06T11:46:22;98787.41;;;28.74;37.84
21863;BME280;11096;51.338;12.524;2023-08-06T11:48:52;98787.94;;;30.02;36.99
21863;BME280;11096;51.338;12.524;2023-08-06T11:51:18;98779.59;;;29.78;35.85
21863;BME280;11096;51.338;12.524;2023-08-06T11:53:49;98777.78;;;29.93;35.73
21863;BME280;11096;51.338;12.524;2023-08-06T11:56:15;98785.13;;;29.56;37.77
21863;BME280;11096;51.338;12.524;2023-08-06T11:58:41;98779.78;;;28.93;38.25
21863;BME280;11096;51.338;12.524;2023-08-06T12:01:07;98776.28;;;29.45;37.46
21863;BME280;11096;51.338;12.524;2023-08-06T12:03:32;98778.56;;;30.14;36.11
21863;BME280;11096;51.338;12.524;2023-08-06T12:05:58;98768.41;;;30.22;35.79
21863;BME280;11096;51.338;12.524;2023-08-06T12:08:26;98769.22;;;30.27;36.33
21863;BME280;11096;51.338;12.524;2023-08-06T12:10:52;98770.84;;;29.19;36.81
21863;BME280;11096;51.338;12.524;2023-08-06T12:13:19;98763.41;;;29.31;38.07
21863;BME280;11096;51.338;12.524;2023-08-06T12:15:45;98771.16;;;28.85;39.15
21863;BME280;11096;51.338;12.524;2023-08-06T12:18:10;98762.44;;;28.53;38.54
21863;BME280;11096;51.338;12.524;2023-08-06T12:20:36;98764.00;;;28.49;38.77
21863;BME280;11096;51.338;12.524;2023-08-06T12:23:01;98767.41;;;28.81;38.93
21863;BME280;11096;51.338;12.524;2023-08-06T12:25:27;98765.91;;;29.01;38.90
21863;BME280;11096;51.338;12.524;2023-08-06T12:27:52;98759.84;;;28.68;38.93
21863;BME280;11096;51.338;12.524;2023-08-06T12:30:18;98765.91;;;29.59;38.93
21863;BME280;11096;51.338;12.524;2023-08-06T12:32:43;98758.03;;;28.79;38.03
21863;BME280;11096;51.338;12.524;2023-08-06T12:35:08;98752.06;;;29.09;37.85
21863;BME280;11096;51.338;12.524;2023-08-06T12:37:34;98753.63;;;29.05;38.27
21863;BME280;11096;51.338;12.524;2023-08-06T12:40:00;98746.69;;;29.09;38.04
21863;BME280;11096;51.338;12.524;2023-08-06T12:42:26;98748.75;;;29.54;36.08
21863;BME280;11096;51.338;12.524;2023-08-06T12:44:51;98749.75;;;29.33;37.41
21863;BME280;11096;51.338;12.524;2023-08-06T12:47:17;98743.31;;;28.76;36.61
21863;BME280;11096;51.338;12.524;2023-08-06T12:49:43;98748.50;;;28.18;38.00
21863;BME280;11096;51.338;12.524;2023-08-06T12:52:09;98756.22;;;28.15;38.82
21863;BME280;11096;51.338;12.524;2023-08-06T12:54:35;98746.59;;;28.14;39.34